Time;durP1;ratioP1;P1;durP2;ratioP2;P2;SDS_P1;SDS_P2;PMS_P1;PMS_P2;Temp;Humidity;BMP_temperature;BMP_pressure;BME280_temperature;BME280_humidity;BME280_pressure;Samples;Min_cycle;Max_cycle;Signal;HPM_P1;HPM_P2
2022/10/27 00:00:23;;;;;;;21.20;6.57;;;;;;;;;;4996180;28;20029;-71
2022/10/27 00:02:48;;;;;;;22.67;7.20;;;;;;;;;;4995525;28;20650;-71
2022/10/27 00:05:14;;;;;;;19.23;8.00;;;;;;;;;;4965206;28;20029;-71
2022/10/27 00:07:39;;;;;;;27.67;7.70;;;;;;;;;;4991068;28;20041;-71
2022/10/27 00:10:05;;;;;;;20.25;7.22;;;;;;;;;;4993901;28;20040;-71
2022/10/27 00:12:30;;;;;;;19.35;7.30;;;;;;;;;;4994181;28;20380;-72
2022/10/27 00:14:56;;;;;;;19.98;7.20;;;;;;;;;;4996168;28;20151;-70
2022/10/27 00:17:23;;;;;;;17.35;6.20;;;;;;;;;;4994145;28;21119;-70
2022/10/27 00:19:48;;;;;;;18.25;6.53;;;;;;;;;;4994565;28;20614;-69
2022/10/27 00:22:14;;;;;;;20.38;6.28;;;;;;;;;;4995699;28;20184;-68
2022/10/27 00:24:40;;;;;;;16.02;6.05;;;;;;;;;;4997759;28;20041;-69
2022/10/27 00:27:07;;;;;;;16.75;6.50;;;;;;;;;;4992683;28;20580;-68
2022/10/27 00:29:33;;;;;;;25.67;9.55;;;;;;;;;;4998970;28;20102;-69
2022/10/27 00:31:59;;;;;;;25.67;8.77;;;;;;;;;;4998790;28;20095;-68
2022/10/27 00:34:24;;;;;;;34.75;10.63;;;;;;;;;;4998829;28;20038;-70
2022/10/27 00:36:49;;;;;;;43.47;11.60;;;;;;;;;;4998958;28;20044;-70
2022/10/27 00:39:14;;;;;;;42.28;10.73;;;;;;;;;;4996493;28;20648;-69
2022/10/27 00:41:41;;;;;;;30.50;9.18;;;;;;;;;;4997942;28;20163;-70
2022/10/27 00:44:25;;;;;;;26.00;8.02;;;;;;;;;;4999207;28;20042;-70
2022/10/27 00:46:50;;;;;;;29.10;9.38;;;;;;;;;;4996972;28;20876;-69
2022/10/27 00:49:17;;;;;;;27.95;11.20;;;;;;;;;;4997613;28;20068;-70
2022/10/27 00:51:48;;;;;;;33.60;13.23;;;;;;;;;;4997756;28;20518;-70
2022/10/27 00:54:15;;;;;;;41.70;13.45;;;;;;;;;;4998353;28;20764;-69
2022/10/27 00:56:41;;;;;;;44.47;13.15;;;;;;;;;;4998434;28;20033;-69
2022/10/27 00:59:07;;;;;;;42.38;15.82;;;;;;;;;;4997019;28;20397;-69
2022/10/27 01:01:34;;;;;;;45.30;14.50;;;;;;;;;;5013775;28;20222;-69
2022/10/27 01:04:00;;;;;;;39.25;14.18;;;;;;;;;;4997833;28;20280;-69
2022/10/27 01:06:25;;;;;;;34.00;12.65;;;;;;;;;;4997029;28;20777;-71
2022/10/27 01:08:50;;;;;;;42.60;14.18;;;;;;;;;;4999350;28;20033;-69
2022/10/27 01:11:16;;;;;;;36.60;11.13;;;;;;;;;;4999433;28;20041;-68
2022/10/27 01:13:42;;;;;;;20.88;7.80;;;;;;;;;;4998218;28;20034;-69
2022/10/27 01:16:07;;;;;;;20.95;6.80;;;;;;;;;;4997177;28;20041;-69
2022/10/27 01:18:38;;;;;;;18.38;7.00;;;;;;;;;;4997932;28;20186;-68
2022/10/27 01:21:10;;;;;;;20.80;7.30;;;;;;;;;;4995414;28;20053;-69
2022/10/27 01:23:58;;;;;;;19.45;7.80;;;;;;;;;;4995606;28;20041;-69
2022/10/27 01:26:38;;;;;;;18.55;6.90;;;;;;;;;;4994433;28;20041;-68
2022/10/27 01:29:07;;;;;;;19.50;7.35;;;;;;;;;;4997609;28;20040;-69
2022/10/27 01:31:42;;;;;;;19.23;6.97;;;;;;;;;;4996289;28;20253;-68
2022/10/27 01:34:18;;;;;;;22.10;7.43;;;;;;;;;;4998315;28;20107;-68
2022/10/27 01:36:47;;;;;;;20.60;8.73;;;;;;;;;;4996711;28;20043;-69
2022/10/27 01:39:18;;;;;;;19.20;7.43;;;;;;;;;;4999780;28;20037;-68
2022/10/27 01:41:47;;;;;;;22.15;8.35;;;;;;;;;;4995919;28;20048;-68
2022/10/27 01:44:17;;;;;;;22.58;7.88;;;;;;;;;;5000738;28;25160;-69
2022/10/27 01:46:43;;;;;;;16.80;7.30;;;;;;;;;;5000585;28;20037;-69
2022/10/27 01:49:08;;;;;;;16.85;6.55;;;;;;;;;;4999723;28;20068;-71
2022/10/27 01:51:33;;;;;;;18.50;7.00;;;;;;;;;;5014855;28;20080;-68
2022/10/27 01:53:59;;;;;;;19.02;7.72;;;;;;;;;;5000411;28;20068;-69
2022/10/27 01:56:42;;;;;;;16.08;7.10;;;;;;;;;;4981943;28;20435;-68
2022/10/27 01:59:25;;;;;;;18.40;7.18;;;;;;;;;;5000008;28;20126;-68
2022/10/27 02:02:12;;;;;;;20.02;8.45;;;;;;;;;;5000900;28;20033;-68
2022/10/27 02:04:37;;;;;;;20.52;8.50;;;;;;;;;;5001937;28;20037;-68
2022/10/27 02:07:27;;;;;;;19.70;7.72;;;;;;;;;;4998535;28;20580;-69
2022/10/27 02:10:19;;;;;;;18.95;8.40;;;;;;;;;;5000778;28;20040;-68
2022/10/27 02:12:51;;;;;;;22.30;8.20;;;;;;;;;;4999524;28;20041;-70
2022/10/27 02:15:22;;;;;;;23.15;9.88;;;;;;;;;;4999701;28;20104;-69
2022/10/27 02:17:49;;;;;;;22.17;9.60;;;;;;;;;;4998786;28;21996;-69
2022/10/27 02:20:20;;;;;;;20.88;8.38;;;;;;;;;;5000410;28;20037;-68
2022/10/27 02:22:46;;;;;;;20.67;8.90;;;;;;;;;;4997998;28;20919;-69
2022/10/27 02:25:12;;;;;;;20.73;8.13;;;;;;;;;;4997810;28;22508;-69
2022/10/27 02:27:43;;;;;;;20.48;8.13;;;;;;;;;;4997978;28;20029;-69
2022/10/27 02:30:11;;;;;;;20.10;7.07;;;;;;;;;;4997598;28;20045;-69
2022/10/27 02:32:36;;;;;;;23.98;8.00;;;;;;;;;;4998568;28;20037;-70
2022/10/27 02:35:04;;;;;;;18.77;7.30;;;;;;;;;;4998285;28;20908;-70
2022/10/27 02:37:29;;;;;;;17.40;7.53;;;;;;;;;;4996367;28;20080;-70
2022/10/27 02:39:55;;;;;;;16.83;7.18;;;;;;;;;;4996307;28;20469;-70
2022/10/27 02:42:20;;;;;;;25.40;8.52;;;;;;;;;;5002633;28;20537;-70
2022/10/27 02:44:45;;;;;;;22.27;9.40;;;;;;;;;;4997247;28;20073;-70
2022/10/27 02:47:16;;;;;;;22.42;9.88;;;;;;;;;;5001163;28;20592;-69
2022/10/27 02:49:41;;;;;;;21.10;9.20;;;;;;;;;;4995859;28;20040;-70
2022/10/27 02:52:09;;;;;;;21.85;8.27;;;;;;;;;;4999125;28;20041;-70
2022/10/27 02:54:34;;;;;;;17.73;7.57;;;;;;;;;;4997143;28;20746;-69
2022/10/27 02:57:02;;;;;;;17.40;8.20;;;;;;;;;;4997884;28;20032;-70
2022/10/27 02:59:27;;;;;;;18.00;8.05;;;;;;;;;;4997247;28;20041;-70
2022/10/27 03:01:53;;;;;;;19.08;7.60;;;;;;;;;;4996394;28;20037;-67
2022/10/27 03:04:18;;;;;;;19.13;8.65;;;;;;;;;;5001030;28;20033;-70
2022/10/27 03:06:46;;;;;;;25.20;9.63;;;;;;;;;;4998418;28;20714;-69
2022/10/27 03:09:11;;;;;;;24.10;10.43;;;;;;;;;;5001367;28;20038;-69
2022/10/27 03:11:39;;;;;;;22.25;10.20;;;;;;;;;;4999926;28;20735;-68
2022/10/27 03:14:04;;;;;;;22.13;9.00;;;;;;;;;;4999865;28;20029;-69
2022/10/27 03:16:29;;;;;;;23.23;9.77;;;;;;;;;;4998808;28;20029;-69
2022/10/27 03:18:55;;;;;;;19.42;9.25;;;;;;;;;;4999794;28;20596;-69
2022/10/27 03:21:21;;;;;;;25.45;10.65;;;;;;;;;;4999612;28;20174;-68
2022/10/27 03:23:46;;;;;;;21.08;11.80;;;;;;;;;;5003122;28;20048;-69
2022/10/27 03:26:11;;;;;;;21.65;12.20;;;;;;;;;;4997944;28;20029;-69
2022/10/27 03:28:37;;;;;;;24.27;11.75;;;;;;;;;;4996138;28;20065;-68
2022/10/27 03:31:03;;;;;;;25.73;12.45;;;;;;;;;;4999214;28;20047;-69
2022/10/27 03:33:28;;;;;;;23.02;12.48;;;;;;;;;;5002080;28;20513;-68
2022/10/27 03:35:54;;;;;;;22.42;10.68;;;;;;;;;;4998754;28;20033;-69
2022/10/27 03:38:19;;;;;;;19.23;11.45;;;;;;;;;;4998428;28;20056;-70
2022/10/27 03:40:44;;;;;;;24.60;11.75;;;;;;;;;;5013371;28;20037;-69
2022/10/27 03:43:10;;;;;;;32.92;15.27;;;;;;;;;;4997158;28;21062;-69
2022/10/27 03:45:38;;;;;;;29.95;13.75;;;;;;;;;;4999285;28;21025;-70
2022/10/27 03:48:09;;;;;;;25.77;12.50;;;;;;;;;;4999312;28;20037;-70
2022/10/27 03:50:34;;;;;;;29.90;14.67;;;;;;;;;;4997350;28;20036;-69
2022/10/27 03:53:00;;;;;;;31.23;14.93;;;;;;;;;;4997471;28;20045;-69
2022/10/27 03:55:26;;;;;;;30.75;14.05;;;;;;;;;;4998753;28;20136;-69
2022/10/27 03:57:53;;;;;;;29.15;13.52;;;;;;;;;;4999016;28;20040;-69
2022/10/27 04:00:18;;;;;;;27.52;13.70;;;;;;;;;;4998436;28;20975;-70
2022/10/27 04:02:46;;;;;;;31.70;14.60;;;;;;;;;;4997407;28;20068;-69
2022/10/27 04:05:11;;;;;;;30.65;16.67;;;;;;;;;;4997709;28;21210;-69
2022/10/27 04:07:39;;;;;;;38.65;19.67;;;;;;;;;;4998368;28;20033;-69
2022/10/27 04:10:04;;;;;;;37.95;18.98;;;;;;;;;;5001740;28;20033;-68
2022/10/27 04:12:30;;;;;;;27.77;15.05;;;;;;;;;;4998901;28;20045;-70
2022/10/27 04:14:55;;;;;;;25.23;12.57;;;;;;;;;;4997790;28;20033;-69
2022/10/27 04:17:23;;;;;;;25.60;12.15;;;;;;;;;;4999213;28;20112;-69
2022/10/27 04:19:48;;;;;;;24.02;12.32;;;;;;;;;;4997227;28;20037;-68
2022/10/27 04:22:13;;;;;;;27.50;12.00;;;;;;;;;;4996173;28;20533;-69
2022/10/27 04:24:39;;;;;;;20.02;9.98;;;;;;;;;;4995772;28;20095;-69
2022/10/27 04:27:05;;;;;;;19.55;10.48;;;;;;;;;;4982193;28;20037;-69
2022/10/27 04:29:30;;;;;;;20.98;10.88;;;;;;;;;;4995715;28;20995;-69
2022/10/27 04:31:55;;;;;;;25.05;11.05;;;;;;;;;;4997143;28;20052;-70
2022/10/27 04:34:20;;;;;;;17.35;9.82;;;;;;;;;;5001344;28;20054;-70
2022/10/27 04:36:46;;;;;;;22.27;10.07;;;;;;;;;;4980603;28;20379;-71
2022/10/27 04:39:13;;;;;;;25.52;11.32;;;;;;;;;;4992512;28;20096;-71
2022/10/27 04:41:38;;;;;;;21.80;9.48;;;;;;;;;;4995445;28;20037;-71
2022/10/27 04:44:03;;;;;;;25.92;10.50;;;;;;;;;;4993076;28;20127;-71
2022/10/27 04:46:29;;;;;;;27.75;10.85;;;;;;;;;;4993816;28;20134;-72
2022/10/27 04:48:54;;;;;;;18.80;8.52;;;;;;;;;;4995106;28;20095;-71
2022/10/27 04:51:22;;;;;;;22.42;10.55;;;;;;;;;;4995133;28;20413;-73
2022/10/27 04:53:47;;;;;;;21.02;8.73;;;;;;;;;;4995571;28;20045;-69
2022/10/27 04:56:12;;;;;;;21.92;9.45;;;;;;;;;;4996861;28;20071;-70
2022/10/27 04:58:38;;;;;;;22.27;9.77;;;;;;;;;;4995444;28;20277;-70
2022/10/27 05:01:07;;;;;;;33.78;10.93;;;;;;;;;;4997498;28;20033;-72
2022/10/27 05:03:34;;;;;;;19.33;8.52;;;;;;;;;;4993667;28;20099;-71
2022/10/27 05:06:00;;;;;;;24.33;9.30;;;;;;;;;;4994318;28;20037;-70
2022/10/27 05:08:25;;;;;;;21.63;9.13;;;;;;;;;;4993747;28;20021;-72
2022/10/27 05:10:51;;;;;;;22.50;9.52;;;;;;;;;;4993046;28;20036;-71
2022/10/27 05:13:16;;;;;;;26.38;9.23;;;;;;;;;;4994631;28;20034;-70
2022/10/27 05:15:41;;;;;;;23.77;10.07;;;;;;;;;;4997740;28;20255;-70
2022/10/27 05:18:06;;;;;;;28.27;12.10;;;;;;;;;;4996985;28;20037;-70
2022/10/27 05:20:32;;;;;;;27.35;10.65;;;;;;;;;;5000454;28;20158;-71
2022/10/27 05:22:57;;;;;;;22.50;9.63;;;;;;;;;;4997751;28;20482;-71
2022/10/27 05:25:22;;;;;;;17.33;7.75;;;;;;;;;;4994521;28;20029;-72
2022/10/27 05:27:48;;;;;;;22.77;8.85;;;;;;;;;;4997543;28;20171;-69
2022/10/27 05:30:13;;;;;;;20.08;8.90;;;;;;;;;;4995810;28;20033;-71
2022/10/27 05:32:39;;;;;;;23.27;9.77;;;;;;;;;;4977783;28;20045;-69
2022/10/27 05:35:04;;;;;;;20.92;9.32;;;;;;;;;;4994192;28;20313;-71
2022/10/27 05:37:30;;;;;;;19.27;8.57;;;;;;;;;;4997300;28;20295;-69
2022/10/27 05:39:55;;;;;;;22.55;9.32;;;;;;;;;;4994359;28;20030;-69
2022/10/27 05:42:20;;;;;;;16.90;7.88;;;;;;;;;;4996914;28;20190;-70
2022/10/27 05:44:46;;;;;;;17.70;7.65;;;;;;;;;;4979031;28;20041;-69
2022/10/27 05:47:11;;;;;;;20.92;9.15;;;;;;;;;;4994170;28;20033;-69
2022/10/27 05:49:36;;;;;;;22.75;9.95;;;;;;;;;;4997018;28;20064;-69
2022/10/27 05:52:01;;;;;;;51.08;25.73;;;;;;;;;;4997105;28;20041;-69
2022/10/27 05:54:27;;;;;;;52.15;23.00;;;;;;;;;;4996205;28;20064;-70
2022/10/27 05:56:54;;;;;;;42.75;16.73;;;;;;;;;;4999064;28;20040;-70
2022/10/27 05:59:20;;;;;;;23.52;9.23;;;;;;;;;;4993529;28;20422;-69
2022/10/27 06:01:45;;;;;;;24.70;8.90;;;;;;;;;;4996824;28;20037;-70
2022/10/27 06:04:10;;;;;;;20.02;8.00;;;;;;;;;;4993203;28;20044;-70
2022/10/27 06:06:38;;;;;;;22.17;8.27;;;;;;;;;;4995926;28;20043;-70
2022/10/27 06:09:06;;;;;;;21.67;8.73;;;;;;;;;;4994737;28;20380;-69
2022/10/27 06:11:31;;;;;;;17.40;7.20;;;;;;;;;;4995984;28;20510;-70
2022/10/27 06:13:57;;;;;;;17.92;7.20;;;;;;;;;;4994942;28;20033;-70
2022/10/27 06:16:24;;;;;;;21.55;7.53;;;;;;;;;;4995704;28;20241;-70
2022/10/27 06:18:49;;;;;;;20.30;8.48;;;;;;;;;;4999001;28;20029;-70
2022/10/27 06:21:17;;;;;;;21.33;9.60;;;;;;;;;;4995438;28;20108;-70
2022/10/27 06:23:43;;;;;;;17.33;7.82;;;;;;;;;;4994390;28;20033;-70
2022/10/27 06:26:09;;;;;;;16.80;7.13;;;;;;;;;;4995092;28;20235;-70
2022/10/27 06:28:37;;;;;;;19.95;7.03;;;;;;;;;;4997479;28;20281;-70
2022/10/27 06:31:03;;;;;;;17.80;7.03;;;;;;;;;;4994474;28;20068;-70
2022/10/27 06:33:30;;;;;;;18.67;7.47;;;;;;;;;;4995064;28;20044;-70
2022/10/27 06:36:00;;;;;;;15.45;6.82;;;;;;;;;;4991643;28;21971;-69
2022/10/27 06:38:26;;;;;;;18.48;7.05;;;;;;;;;;4995650;28;20147;-71
2022/10/27 06:40:51;;;;;;;17.55;6.32;;;;;;;;;;4995983;28;20091;-70
2022/10/27 06:43:16;;;;;;;13.65;6.45;;;;;;;;;;4996878;28;20032;-71
2022/10/27 06:45:45;;;;;;;17.85;7.07;;;;;;;;;;4995539;28;20033;-70
2022/10/27 06:48:10;;;;;;;16.08;5.88;;;;;;;;;;4996823;28;20029;-70
2022/10/27 06:50:36;;;;;;;14.43;5.93;;;;;;;;;;4996742;28;20629;-71
2022/10/27 06:53:01;;;;;;;11.82;5.63;;;;;;;;;;4996913;28;20045;-70
2022/10/27 06:55:27;;;;;;;11.88;4.88;;;;;;;;;;4995637;28;20487;-70
2022/10/27 06:57:53;;;;;;;13.05;5.32;;;;;;;;;;4996957;28;20146;-72
2022/10/27 07:00:18;;;;;;;14.13;6.28;;;;;;;;;;4994394;28;20079;-68
2022/10/27 07:02:43;;;;;;;13.88;5.57;;;;;;;;;;5000726;28;20056;-70
2022/10/27 07:05:09;;;;;;;14.82;6.28;;;;;;;;;;4996192;28;20055;-69
2022/10/27 07:07:37;;;;;;;14.98;7.18;;;;;;;;;;4996374;28;20419;-71
2022/10/27 07:10:04;;;;;;;16.73;6.85;;;;;;;;;;4995442;28;20044;-69
2022/10/27 07:12:30;;;;;;;13.80;6.07;;;;;;;;;;4996894;28;20183;-69
2022/10/27 07:14:55;;;;;;;16.33;6.13;;;;;;;;;;4996569;28;20039;-69
2022/10/27 07:17:23;;;;;;;18.65;7.03;;;;;;;;;;4996507;28;20454;-69
2022/10/27 07:19:48;;;;;;;13.70;6.00;;;;;;;;;;4995951;28;20040;-69
2022/10/27 07:22:14;;;;;;;11.20;5.60;;;;;;;;;;4995268;28;20028;-69
2022/10/27 07:24:39;;;;;;;9.98;4.85;;;;;;;;;;4995990;28;20122;-70
2022/10/27 07:27:05;;;;;;;11.27;5.15;;;;;;;;;;4995477;28;20032;-70
2022/10/27 07:29:32;;;;;;;12.98;5.60;;;;;;;;;;4995084;28;20075;-69
2022/10/27 07:31:58;;;;;;;14.93;5.68;;;;;;;;;;4998661;28;20441;-69
2022/10/27 07:34:23;;;;;;;10.15;4.50;;;;;;;;;;4995616;28;20080;-69
2022/10/27 07:36:48;;;;;;;8.18;4.75;;;;;;;;;;4978037;28;20029;-70
2022/10/27 07:39:14;;;;;;;12.68;4.57;;;;;;;;;;4986905;28;20312;-67
2022/10/27 07:41:39;;;;;;;12.38;5.10;;;;;;;;;;4994419;28;20148;-69
2022/10/27 07:44:05;;;;;;;16.38;6.60;;;;;;;;;;4994779;28;20072;-70
2022/10/27 07:46:30;;;;;;;15.45;7.65;;;;;;;;;;4995684;28;20184;-67
2022/10/27 07:48:58;;;;;;;13.13;6.47;;;;;;;;;;4995582;28;20619;-71
2022/10/27 07:51:26;;;;;;;13.07;4.50;;;;;;;;;;4992732;28;20090;-69
2022/10/27 07:53:51;;;;;;;15.80;4.75;;;;;;;;;;4994988;28;20036;-68
2022/10/27 07:56:17;;;;;;;12.88;4.25;;;;;;;;;;4992689;28;20059;-68
2022/10/27 07:58:43;;;;;;;9.07;4.00;;;;;;;;;;4995196;28;20080;-69
2022/10/27 08:01:11;;;;;;;8.55;3.58;;;;;;;;;;4993556;28;20959;-69
2022/10/27 08:03:39;;;;;;;8.95;3.88;;;;;;;;;;4996413;28;25864;-70
2022/10/27 08:06:04;;;;;;;13.07;4.60;;;;;;;;;;4997454;28;20120;-69
2022/10/27 08:08:30;;;;;;;11.02;4.60;;;;;;;;;;4981784;28;20030;-69
2022/10/27 08:10:55;;;;;;;11.07;4.32;;;;;;;;;;4976968;28;20030;-69
2022/10/27 08:13:21;;;;;;;10.90;5.45;;;;;;;;;;4978410;28;20026;-70
2022/10/27 08:15:46;;;;;;;11.23;5.03;;;;;;;;;;4975740;28;20045;-70
2022/10/27 08:18:11;;;;;;;11.27;4.60;;;;;;;;;;4976729;28;20808;-70
2022/10/27 08:20:38;;;;;;;10.40;4.47;;;;;;;;;;4976456;28;20034;-69
2022/10/27 08:23:05;;;;;;;14.02;5.40;;;;;;;;;;4979042;28;20034;-71
2022/10/27 08:25:31;;;;;;;12.05;5.45;;;;;;;;;;4976726;28;20030;-69
2022/10/27 08:27:57;;;;;;;10.85;4.20;;;;;;;;;;4976201;28;20073;-69
2022/10/27 08:30:24;;;;;;;11.85;4.95;;;;;;;;;;4974312;28;20133;-70
2022/10/27 08:32:53;;;;;;;12.25;5.15;;;;;;;;;;4975599;28;20604;-71
2022/10/27 08:35:18;;;;;;;17.88;6.20;;;;;;;;;;4995351;28;20853;-68
2022/10/27 08:37:44;;;;;;;13.48;5.78;;;;;;;;;;4994786;28;20053;-71
2022/10/27 08:40:09;;;;;;;19.45;6.72;;;;;;;;;;4995985;28;20080;-69
2022/10/27 08:42:35;;;;;;;16.63;6.20;;;;;;;;;;4996083;28;20628;-68
2022/10/27 08:45:03;;;;;;;18.23;6.82;;;;;;;;;;4994771;28;20110;-67
2022/10/27 08:47:28;;;;;;;11.52;4.93;;;;;;;;;;4998637;28;20563;-68
2022/10/27 08:49:54;;;;;;;14.80;5.72;;;;;;;;;;4996733;28;20505;-71
2022/10/27 08:52:25;;;;;;;14.00;4.20;;;;;;;;;;4999062;28;20997;-69
2022/10/27 08:54:52;;;;;;;10.45;3.85;;;;;;;;;;4998569;28;20457;-68
2022/10/27 08:57:22;;;;;;;9.50;3.42;;;;;;;;;;4996620;28;20052;-67
2022/10/27 08:59:53;;;;;;;13.05;5.70;;;;;;;;;;4999313;28;20282;-70
2022/10/27 09:02:18;;;;;;;28.65;12.38;;;;;;;;;;4998725;28;22842;-68
2022/10/27 09:04:46;;;;;;;21.70;8.60;;;;;;;;;;4998083;28;20033;-70
2022/10/27 09:07:17;;;;;;;14.90;5.82;;;;;;;;;;4998107;28;20430;-69
2022/10/27 09:09:52;;;;;;;10.93;4.70;;;;;;;;;;4998386;28;20037;-68
2022/10/27 09:12:26;;;;;;;12.18;4.90;;;;;;;;;;4977681;28;20083;-68
2022/10/27 09:15:13;;;;;;;11.48;3.53;;;;;;;;;;4979006;28;20072;-69
2022/10/27 09:17:41;;;;;;;12.65;3.88;;;;;;;;;;4998031;28;20033;-72
2022/10/27 09:20:19;;;;;;;7.35;3.80;;;;;;;;;;4997971;28;20293;-72
2022/10/27 09:22:45;;;;;;;15.63;4.53;;;;;;;;;;4979566;28;20033;-70
2022/10/27 09:25:16;;;;;;;15.38;6.32;;;;;;;;;;5001228;28;20032;-68
2022/10/27 09:27:43;;;;;;;16.40;5.93;;;;;;;;;;4999004;28;20144;-68
2022/10/27 09:30:11;;;;;;;13.93;5.20;;;;;;;;;;4998936;28;20043;-69
2022/10/27 09:32:39;;;;;;;11.05;4.40;;;;;;;;;;4997548;28;20491;-72
2022/10/27 09:35:09;;;;;;;9.68;3.35;;;;;;;;;;4999134;28;20111;-67
2022/10/27 09:37:40;;;;;;;8.23;2.90;;;;;;;;;;4998632;28;20182;-69
2022/10/27 09:40:12;;;;;;;14.52;4.05;;;;;;;;;;4996578;28;20039;-72
2022/10/27 09:42:38;;;;;;;15.85;6.53;;;;;;;;;;4978052;28;20045;-69
2022/10/27 09:45:15;;;;;;;26.92;13.93;;;;;;;;;;4973242;28;20146;-70
2022/10/27 09:47:41;;;;;;;16.23;7.75;;;;;;;;;;4998115;28;20029;-71
2022/10/27 09:50:23;;;;;;;11.90;4.70;;;;;;;;;;4998439;28;20276;-70
2022/10/27 09:52:49;;;;;;;7.70;3.72;;;;;;;;;;4997565;28;20044;-68
2022/10/27 09:55:15;;;;;;;11.15;3.65;;;;;;;;;;5012109;28;20994;-70
2022/10/27 09:57:41;;;;;;;12.55;3.50;;;;;;;;;;4999111;28;20075;-70
2022/10/27 10:00:14;;;;;;;11.13;3.63;;;;;;;;;;4997774;28;20037;-70
2022/10/27 10:02:40;;;;;;;8.77;3.40;;;;;;;;;;5012488;28;20037;-68
2022/10/27 10:05:18;;;;;;;13.30;4.55;;;;;;;;;;5013182;28;20033;-70
2022/10/27 10:07:45;;;;;;;12.25;4.45;;;;;;;;;;4997666;28;20671;-70
2022/10/27 10:10:33;;;;;;;9.35;3.70;;;;;;;;;;4997935;28;20048;-68
2022/10/27 10:13:01;;;;;;;13.15;5.10;;;;;;;;;;5011551;28;20041;-68
2022/10/27 10:15:27;;;;;;;23.77;9.27;;;;;;;;;;4998103;28;20679;-70
2022/10/27 10:17:56;;;;;;;32.17;12.35;;;;;;;;;;4995840;28;20041;-70
2022/10/27 10:20:28;;;;;;;18.77;8.55;;;;;;;;;;4996433;28;20037;-72
2022/10/27 10:22:53;;;;;;;18.17;6.20;;;;;;;;;;4996596;28;20283;-69
2022/10/27 10:25:27;;;;;;;16.13;5.57;;;;;;;;;;4995351;28;20433;-69
2022/10/27 10:28:01;;;;;;;10.15;4.40;;;;;;;;;;4995563;28;20151;-69
2022/10/27 10:30:27;;;;;;;11.73;4.18;;;;;;;;;;4997459;28;20048;-70
2022/10/27 10:32:54;;;;;;;10.40;4.50;;;;;;;;;;4997088;28;20386;-70
2022/10/27 10:35:38;;;;;;;9.18;3.60;;;;;;;;;;4996730;28;20555;-69
2022/10/27 10:38:23;;;;;;;10.05;3.75;;;;;;;;;;4995750;28;20067;-69
2022/10/27 10:40:55;;;;;;;10.45;4.28;;;;;;;;;;4997268;28;20774;-68
2022/10/27 10:43:20;;;;;;;8.65;4.20;;;;;;;;;;4996779;28;20032;-69
2022/10/27 10:45:49;;;;;;;11.73;3.70;;;;;;;;;;4996791;28;20041;-68
2022/10/27 10:48:20;;;;;;;11.95;4.55;;;;;;;;;;4995855;28;20485;-69
2022/10/27 10:50:46;;;;;;;11.40;3.75;;;;;;;;;;4995451;28;20087;-70
2022/10/27 10:53:29;;;;;;;10.75;4.35;;;;;;;;;;4996327;28;20902;-71
2022/10/27 10:55:57;;;;;;;12.35;5.50;;;;;;;;;;4992723;28;20283;-69
2022/10/27 10:58:24;;;;;;;11.88;4.53;;;;;;;;;;4995802;28;20114;-69
2022/10/27 11:00:52;;;;;;;11.13;4.22;;;;;;;;;;4994564;28;20076;-69
2022/10/27 11:03:21;;;;;;;10.35;3.60;;;;;;;;;;4994310;28;20037;-70
2022/10/27 11:05:54;;;;;;;9.68;2.85;;;;;;;;;;5001071;28;22569;-70
2022/10/27 11:08:21;;;;;;;8.27;3.08;;;;;;;;;;4995540;28;20086;-71
2022/10/27 11:10:47;;;;;;;14.00;5.65;;;;;;;;;;4994656;28;20048;-71
2022/10/27 11:13:16;;;;;;;27.77;11.57;;;;;;;;;;4995599;28;20076;-72
2022/10/27 11:15:52;;;;;;;19.73;8.40;;;;;;;;;;4996242;28;20040;-72
2022/10/27 11:18:20;;;;;;;18.83;5.95;;;;;;;;;;4996130;28;20337;-72
2022/10/27 11:20:47;;;;;;;14.80;6.20;;;;;;;;;;4995877;28;20044;-69
2022/10/27 11:23:16;;;;;;;11.45;4.32;;;;;;;;;;4996398;28;20696;-70
2022/10/27 11:25:41;;;;;;;9.57;3.20;;;;;;;;;;4976060;28;20485;-70
2022/10/27 11:28:15;;;;;;;8.13;3.50;;;;;;;;;;4996352;28;20037;-70
2022/10/27 11:30:52;;;;;;;13.82;4.40;;;;;;;;;;4997639;28;20245;-69
2022/10/27 11:33:35;;;;;;;10.88;3.75;;;;;;;;;;4996551;28;20095;-69
2022/10/27 11:36:01;;;;;;;10.60;3.33;;;;;;;;;;4995520;28;20549;-68
2022/10/27 11:38:37;;;;;;;12.93;4.68;;;;;;;;;;4998023;28;20069;-72
2022/10/27 11:41:12;;;;;;;13.77;5.93;;;;;;;;;;4995681;28;20099;-71
2022/10/27 11:43:43;;;;;;;16.27;5.55;;;;;;;;;;4994557;28;20044;-69
2022/10/27 11:46:14;;;;;;;11.07;3.95;;;;;;;;;;4995587;28;20573;-70
2022/10/27 11:48:43;;;;;;;10.23;3.38;;;;;;;;;;4994223;28;20032;-70
2022/10/27 11:51:15;;;;;;;9.05;2.90;;;;;;;;;;4995023;28;20116;-68
2022/10/27 11:53:40;;;;;;;9.52;2.80;;;;;;;;;;4995783;28;20041;-69
2022/10/27 11:56:20;;;;;;;6.20;2.30;;;;;;;;;;4983082;28;20107;-72
2022/10/27 11:59:02;;;;;;;10.10;2.92;;;;;;;;;;4994808;28;20096;-70
2022/10/27 12:01:33;;;;;;;11.25;3.45;;;;;;;;;;4995140;28;20499;-70
2022/10/27 12:04:24;;;;;;;8.77;3.47;;;;;;;;;;4994606;28;20126;-69
2022/10/27 12:07:01;;;;;;;11.70;4.53;;;;;;;;;;4988599;28;20573;-70
2022/10/27 12:09:53;;;;;;;19.55;7.00;;;;;;;;;;4995339;28;20029;-69
2022/10/27 12:12:18;;;;;;;13.77;4.65;;;;;;;;;;4996012;28;20040;-69
2022/10/27 12:14:54;;;;;;;21.63;8.77;;;;;;;;;;4995142;28;20106;-69
2022/10/27 12:17:23;;;;;;;17.23;8.02;;;;;;;;;;4997674;28;20044;-70
2022/10/27 12:19:53;;;;;;;14.23;5.43;;;;;;;;;;4996887;28;20061;-70
2022/10/27 12:22:29;;;;;;;11.57;5.18;;;;;;;;;;4994720;28;20043;-69
2022/10/27 12:25:00;;;;;;;9.48;4.05;;;;;;;;;;4997358;28;20436;-71
2022/10/27 12:27:30;;;;;;;12.25;4.57;;;;;;;;;;4999875;28;20038;-69
2022/10/27 12:30:01;;;;;;;16.83;6.80;;;;;;;;;;4994479;28;20056;-70
2022/10/27 12:32:38;;;;;;;31.30;13.07;;;;;;;;;;4994019;28;20447;-69
2022/10/27 12:35:24;;;;;;;18.38;8.00;;;;;;;;;;4997932;28;20434;-70
2022/10/27 12:37:54;;;;;;;17.92;6.32;;;;;;;;;;4990061;28;20436;-69
2022/10/27 12:40:20;;;;;;;14.38;6.03;;;;;;;;;;4999216;28;20623;-69
2022/10/27 12:42:49;;;;;;;19.40;5.50;;;;;;;;;;4993626;28;20037;-69
2022/10/27 12:45:31;;;;;;;14.25;4.72;;;;;;;;;;4997870;28;20104;-69
2022/10/27 12:48:05;;;;;;;12.98;4.57;;;;;;;;;;4999287;28;20095;-69
2022/10/27 12:50:30;;;;;;;9.95;4.45;;;;;;;;;;4997698;28;20654;-72
2022/10/27 12:53:22;;;;;;;12.75;4.78;;;;;;;;;;4995507;28;20048;-71
2022/10/27 12:56:10;;;;;;;12.13;4.03;;;;;;;;;;4994758;28;21080;-71
2022/10/27 12:58:45;;;;;;;12.48;4.28;;;;;;;;;;4995868;28;20033;-69
2022/10/27 13:01:33;;;;;;;19.67;9.00;;;;;;;;;;4996408;28;20596;-69
2022/10/27 13:04:17;;;;;;;18.38;7.43;;;;;;;;;;4997612;28;20042;-71
2022/10/27 13:06:45;;;;;;;13.90;5.47;;;;;;;;;;4995552;28;20283;-69
2022/10/27 13:09:32;;;;;;;16.38;5.75;;;;;;;;;;4996344;28;20064;-70
2022/10/27 13:12:05;;;;;;;14.60;4.78;;;;;;;;;;4996910;28;20053;-69
2022/10/27 13:14:39;;;;;;;10.85;4.70;;;;;;;;;;4998688;28;20586;-68
2022/10/27 13:17:23;;;;;;;32.40;13.75;;;;;;;;;;4991115;28;20312;-70
2022/10/27 13:19:51;;;;;;;34.15;14.90;;;;;;;;;;4999023;28;20079;-69
2022/10/27 13:22:21;;;;;;;14.93;4.88;;;;;;;;;;4997574;28;20465;-71
2022/10/27 13:24:56;;;;;;;10.15;3.40;;;;;;;;;;4997004;28;20164;-69
2022/10/27 13:27:30;;;;;;;19.80;5.45;;;;;;;;;;4996242;28;20037;-70
2022/10/27 13:30:11;;;;;;;10.27;3.35;;;;;;;;;;4996836;28;20412;-71
2022/10/27 13:32:37;;;;;;;9.40;2.43;;;;;;;;;;4998648;28;20486;-69
2022/10/27 13:35:03;;;;;;;11.15;2.97;;;;;;;;;;4997434;28;20047;-70
2022/10/27 13:37:43;;;;;;;12.57;4.47;;;;;;;;;;4996966;28;20037;-71
2022/10/27 13:40:20;;;;;;;10.48;3.05;;;;;;;;;;5000707;28;20052;-69
2022/10/27 13:42:45;;;;;;;13.13;3.15;;;;;;;;;;4997741;28;20490;-70
2022/10/27 13:45:26;;;;;;;12.27;3.33;;;;;;;;;;4998768;28;20040;-68
2022/10/27 13:48:17;;;;;;;13.88;3.90;;;;;;;;;;4996520;28;20038;-69
2022/10/27 13:50:47;;;;;;;11.75;4.13;;;;;;;;;;4996013;28;20492;-70
2022/10/27 13:53:15;;;;;;;12.85;3.72;;;;;;;;;;4997343;28;20460;-69
2022/10/27 13:55:41;;;;;;;14.55;4.55;;;;;;;;;;4995382;28;20843;-68
2022/10/27 13:58:19;;;;;;;14.48;3.90;;;;;;;;;;4995228;28;20073;-68
2022/10/27 14:00:45;;;;;;;11.40;3.53;;;;;;;;;;4994259;28;20303;-68
2022/10/27 14:03:13;;;;;;;20.55;5.32;;;;;;;;;;4997520;28;20029;-69
2022/10/27 14:05:43;;;;;;;14.88;5.15;;;;;;;;;;4995994;28;20041;-69
2022/10/27 14:08:19;;;;;;;17.70;5.20;;;;;;;;;;4995872;28;20664;-68
2022/10/27 14:10:45;;;;;;;13.57;4.95;;;;;;;;;;4996444;28;20036;-71
2022/10/27 14:13:36;;;;;;;16.45;5.20;;;;;;;;;;4995973;28;21200;-68
2022/10/27 14:16:02;;;;;;;14.30;4.82;;;;;;;;;;4993997;28;20132;-68
2022/10/27 14:18:27;;;;;;;22.77;5.32;;;;;;;;;;4996041;28;22333;-69
2022/10/27 14:20:54;;;;;;;16.90;4.97;;;;;;;;;;4996649;28;20110;-68
2022/10/27 14:23:19;;;;;;;16.80;5.32;;;;;;;;;;4997484;28;20755;-69
2022/10/27 14:25:45;;;;;;;17.80;5.50;;;;;;;;;;4996867;28;20441;-70
2022/10/27 14:28:18;;;;;;;18.67;5.55;;;;;;;;;;4980433;28;22214;-72
2022/10/27 14:30:44;;;;;;;17.40;4.47;;;;;;;;;;4998509;28;20837;-71
2022/10/27 14:33:21;;;;;;;19.20;4.93;;;;;;;;;;4999982;28;20051;-70
2022/10/27 14:35:47;;;;;;;16.52;4.88;;;;;;;;;;4999121;28;20120;-69
2022/10/27 14:38:17;;;;;;;13.48;3.55;;;;;;;;;;5000263;28;20488;-70